sensor_id;sensor_type;location;lat;lon;timestamp;P1;durP1;ratioP1;P2;durP2;ratioP2
47715;SDS011;33476;50.984;3.538;2023-02-14T00:01:35;28.05;;;14.98;;
47715;SDS011;33476;50.984;3.538;2023-02-14T00:04:00;31.05;;;14.70;;
47715;SDS011;33476;50.984;3.538;2023-02-14T00:06:26;28.27;;;14.73;;
47715;SDS011;33476;50.984;3.538;2023-02-14T00:08:52;32.47;;;14.57;;
47715;SDS011;33476;50.984;3.538;2023-02-14T00:11:18;30.55;;;14.75;;
47715;SDS011;33476;50.984;3.538;2023-02-14T00:13:44;31.25;;;14.93;;
47715;SDS011;33476;50.984;3.538;2023-02-14T00:16:30;30.77;;;15.27;;
47715;SDS011;33476;50.984;3.538;2023-02-14T00:18:56;32.70;;;15.05;;
47715;SDS011;33476;50.984;3.538;2023-02-14T00:21:28;32.47;;;14.55;;
47715;SDS011;33476;50.984;3.538;2023-02-14T00:23:54;33.75;;;15.80;;
47715;SDS011;33476;50.984;3.538;2023-02-14T00:26:20;30.27;;;15.20;;
47715;SDS011;33476;50.984;3.538;2023-02-14T00:28:45;32.28;;;14.35;;
47715;SDS011;33476;50.984;3.538;2023-02-14T00:31:10;27.15;;;14.23;;
47715;SDS011;33476;50.984;3.538;2023-02-14T00:33:36;31.90;;;15.40;;
47715;SDS011;33476;50.984;3.538;2023-02-14T00:36:02;28.55;;;14.55;;
47715;SDS011;33476;50.984;3.538;2023-02-14T00:38:29;28.90;;;14.15;;
47715;SDS011;33476;50.984;3.538;2023-02-14T00:40:54;24.92;;;12.73;;
47715;SDS011;33476;50.984;3.538;2023-02-14T00:43:20;25.20;;;12.02;;
47715;SDS011;33476;50.984;3.538;2023-02-14T00:45:45;27.45;;;13.10;;
47715;SDS011;33476;50.984;3.538;2023-02-14T00:48:10;27.75;;;13.02;;
47715;SDS011;33476;50.984;3.538;2023-02-14T00:50:36;25.48;;;13.30;;
47715;SDS011;33476;50.984;3.538;2023-02-14T00:53:01;29.60;;;13.52;;
47715;SDS011;33476;50.984;3.538;2023-02-14T00:55:26;26.90;;;13.20;;
47715;SDS011;33476;50.984;3.538;2023-02-14T00:57:52;26.50;;;12.75;;
47715;SDS011;33476;50.984;3.538;2023-02-14T01:00:17;25.25;;;12.27;;
47715;SDS011;33476;50.984;3.538;2023-02-14T01:02:43;20.30;;;10.75;;
47715;SDS011;33476;50.984;3.538;2023-02-14T01:05:08;20.83;;;11.00;;
47715;SDS011;33476;50.984;3.538;2023-02-14T01:07:33;19.00;;;10.25;;
47715;SDS011;33476;50.984;3.538;2023-02-14T01:09:59;20.55;;;9.82;;
47715;SDS011;33476;50.984;3.538;2023-02-14T01:12:24;17.70;;;9.50;;
47715;SDS011;33476;50.984;3.538;2023-02-14T01:14:49;16.33;;;9.32;;
47715;SDS011;33476;50.984;3.538;2023-02-14T01:17:14;16.27;;;8.80;;
47715;SDS011;33476;50.984;3.538;2023-02-14T01:19:40;21.70;;;9.05;;
47715;SDS011;33476;50.984;3.538;2023-02-14T01:22:06;15.10;;;8.52;;
47715;SDS011;33476;50.984;3.538;2023-02-14T01:24:32;17.10;;;10.43;;
47715;SDS011;33476;50.984;3.538;2023-02-14T01:26:57;20.33;;;10.05;;
47715;SDS011;33476;50.984;3.538;2023-02-14T01:29:23;19.73;;;10.18;;
47715;SDS011;33476;50.984;3.538;2023-02-14T01:31:48;15.80;;;9.15;;
47715;SDS011;33476;50.984;3.538;2023-02-14T01:34:13;17.17;;;9.88;;
47715;SDS011;33476;50.984;3.538;2023-02-14T01:36:39;21.02;;;9.50;;
47715;SDS011;33476;50.984;3.538;2023-02-14T01:39:09;18.42;;;8.80;;
47715;SDS011;33476;50.984;3.538;2023-02-14T01:41:38;20.73;;;9.90;;
47715;SDS011;33476;50.984;3.538;2023-02-14T01:44:06;17.55;;;9.98;;
47715;SDS011;33476;50.984;3.538;2023-02-14T01:46:52;18.75;;;9.82;;
47715;SDS011;33476;50.984;3.538;2023-02-14T01:49:21;18.80;;;9.32;;
47715;SDS011;33476;50.984;3.538;2023-02-14T01:51:51;18.80;;;9.73;;
47715;SDS011;33476;50.984;3.538;2023-02-14T01:54:22;23.67;;;10.95;;
47715;SDS011;33476;50.984;3.538;2023-02-14T01:56:50;17.88;;;10.25;;
47715;SDS011;33476;50.984;3.538;2023-02-14T01:59:22;20.63;;;10.65;;
47715;SDS011;33476;50.984;3.538;2023-02-14T02:01:51;22.75;;;10.15;;
47715;SDS011;33476;50.984;3.538;2023-02-14T02:04:21;20.92;;;10.43;;
47715;SDS011;33476;50.984;3.538;2023-02-14T02:06:54;19.27;;;10.75;;
47715;SDS011;33476;50.984;3.538;2023-02-14T02:09:25;18.70;;;9.82;;
47715;SDS011;33476;50.984;3.538;2023-02-14T02:11:56;19.15;;;9.93;;
47715;SDS011;33476;50.984;3.538;2023-02-14T02:14:22;18.13;;;10.00;;
47715;SDS011;33476;50.984;3.538;2023-02-14T02:39:02;22.23;;;11.05;;
47715;SDS011;33476;50.984;3.538;2023-02-14T02:44:38;22.90;;;11.85;;
47715;SDS011;33476;50.984;3.538;2023-02-14T02:47:26;23.23;;;11.85;;
47715;SDS011;33476;50.984;3.538;2023-02-14T02:52:56;16.08;;;9.35;;
47715;SDS011;33476;50.984;3.538;2023-02-14T02:59:00;24.98;;;11.30;;
47715;SDS011;33476;50.984;3.538;2023-02-14T03:01:22;26.02;;;11.77;;
47715;SDS011;33476;50.984;3.538;2023-02-14T03:06:39;22.15;;;11.35;;
47715;SDS011;33476;50.984;3.538;2023-02-14T03:09:09;27.25;;;12.10;;
47715;SDS011;33476;50.984;3.538;2023-02-14T03:15:15;25.90;;;12.85;;
47715;SDS011;33476;50.984;3.538;2023-02-14T03:17:49;25.33;;;12.63;;
47715;SDS011;33476;50.984;3.538;2023-02-14T03:20:29;23.63;;;12.38;;
47715;SDS011;33476;50.984;3.538;2023-02-14T03:23:11;27.25;;;11.65;;
47715;SDS011;33476;50.984;3.538;2023-02-14T03:28:17;23.60;;;12.02;;
47715;SDS011;33476;50.984;3.538;2023-02-14T03:36:19;21.13;;;11.18;;
47715;SDS011;33476;50.984;3.538;2023-02-14T03:39:04;26.45;;;11.57;;
47715;SDS011;33476;50.984;3.538;2023-02-14T03:41:39;23.02;;;11.57;;
47715;SDS011;33476;50.984;3.538;2023-02-14T03:44:10;24.70;;;11.65;;
47715;SDS011;33476;50.984;3.538;2023-02-14T03:49:09;24.35;;;12.15;;
47715;SDS011;33476;50.984;3.538;2023-02-14T03:51:38;22.42;;;11.57;;
47715;SDS011;33476;50.984;3.538;2023-02-14T03:54:06;25.30;;;12.30;;
47715;SDS011;33476;50.984;3.538;2023-02-14T03:56:35;24.50;;;12.68;;
47715;SDS011;33476;50.984;3.538;2023-02-14T03:59:06;24.58;;;12.05;;
47715;SDS011;33476;50.984;3.538;2023-02-14T04:04:16;20.52;;;11.02;;
47715;SDS011;33476;50.984;3.538;2023-02-14T04:06:45;22.30;;;11.75;;
47715;SDS011;33476;50.984;3.538;2023-02-14T04:09:10;30.15;;;13.13;;
47715;SDS011;33476;50.984;3.538;2023-02-14T04:11:36;23.90;;;12.43;;
47715;SDS011;33476;50.984;3.538;2023-02-14T04:14:02;23.60;;;12.15;;
47715;SDS011;33476;50.984;3.538;2023-02-14T04:16:28;22.20;;;11.35;;
47715;SDS011;33476;50.984;3.538;2023-02-14T04:18:54;24.58;;;12.40;;
47715;SDS011;33476;50.984;3.538;2023-02-14T04:21:38;24.80;;;12.75;;
47715;SDS011;33476;50.984;3.538;2023-02-14T04:24:03;25.05;;;12.52;;
47715;SDS011;33476;50.984;3.538;2023-02-14T04:26:29;26.52;;;12.80;;
47715;SDS011;33476;50.984;3.538;2023-02-14T04:28:54;25.63;;;13.23;;
47715;SDS011;33476;50.984;3.538;2023-02-14T04:31:20;28.58;;;13.35;;
47715;SDS011;33476;50.984;3.538;2023-02-14T04:33:45;25.25;;;13.25;;
47715;SDS011;33476;50.984;3.538;2023-02-14T04:36:12;28.38;;;13.05;;
47715;SDS011;33476;50.984;3.538;2023-02-14T04:38:38;28.55;;;14.07;;
47715;SDS011;33476;50.984;3.538;2023-02-14T04:41:03;30.05;;;14.02;;
47715;SDS011;33476;50.984;3.538;2023-02-14T04:43:28;23.65;;;12.60;;
47715;SDS011;33476;50.984;3.538;2023-02-14T04:45:54;30.92;;;13.85;;
47715;SDS011;33476;50.984;3.538;2023-02-14T04:48:19;30.05;;;13.90;;
47715;SDS011;33476;50.984;3.538;2023-02-14T04:50:49;27.15;;;13.57;;
47715;SDS011;33476;50.984;3.538;2023-02-14T04:53:16;29.80;;;14.20;;
47715;SDS011;33476;50.984;3.538;2023-02-14T04:55:43;26.25;;;13.25;;
47715;SDS011;33476;50.984;3.538;2023-02-14T04:58:08;28.15;;;13.65;;
47715;SDS011;33476;50.984;3.538;2023-02-14T05:00:34;27.38;;;13.02;;
47715;SDS011;33476;50.984;3.538;2023-02-14T05:02:59;29.70;;;14.18;;
47715;SDS011;33476;50.984;3.538;2023-02-14T05:05:24;25.52;;;13.02;;
47715;SDS011;33476;50.984;3.538;2023-02-14T05:07:50;26.70;;;14.40;;
47715;SDS011;33476;50.984;3.538;2023-02-14T05:10:15;30.08;;;14.50;;
47715;SDS011;33476;50.984;3.538;2023-02-14T05:12:41;35.00;;;15.05;;
47715;SDS011;33476;50.984;3.538;2023-02-14T05:15:06;28.40;;;14.10;;
47715;SDS011;33476;50.984;3.538;2023-02-14T05:17:32;28.58;;;13.23;;
47715;SDS011;33476;50.984;3.538;2023-02-14T05:19:57;28.55;;;13.57;;
47715;SDS011;33476;50.984;3.538;2023-02-14T05:22:23;29.33;;;14.30;;
47715;SDS011;33476;50.984;3.538;2023-02-14T05:24:48;34.30;;;15.25;;
47715;SDS011;33476;50.984;3.538;2023-02-14T05:27:13;29.88;;;14.60;;
47715;SDS011;33476;50.984;3.538;2023-02-14T05:29:38;33.22;;;15.13;;
47715;SDS011;33476;50.984;3.538;2023-02-14T05:32:04;28.20;;;13.77;;
47715;SDS011;33476;50.984;3.538;2023-02-14T05:34:29;32.50;;;14.75;;
47715;SDS011;33476;50.984;3.538;2023-02-14T05:36:54;32.17;;;14.48;;
47715;SDS011;33476;50.984;3.538;2023-02-14T05:39:20;30.60;;;14.30;;
47715;SDS011;33476;50.984;3.538;2023-02-14T05:41:45;31.30;;;14.55;;
47715;SDS011;33476;50.984;3.538;2023-02-14T05:44:10;32.30;;;14.98;;
47715;SDS011;33476;50.984;3.538;2023-02-14T05:46:36;28.05;;;13.80;;
47715;SDS011;33476;50.984;3.538;2023-02-14T05:49:02;30.83;;;14.65;;
47715;SDS011;33476;50.984;3.538;2023-02-14T05:51:27;33.65;;;13.90;;
47715;SDS011;33476;50.984;3.538;2023-02-14T05:53:53;32.28;;;14.55;;
47715;SDS011;33476;50.984;3.538;2023-02-14T05:56:18;34.00;;;15.50;;
47715;SDS011;33476;50.984;3.538;2023-02-14T05:58:43;30.33;;;14.48;;
47715;SDS011;33476;50.984;3.538;2023-02-14T06:01:08;27.40;;;14.55;;
47715;SDS011;33476;50.984;3.538;2023-02-14T06:03:34;34.72;;;15.18;;
47715;SDS011;33476;50.984;3.538;2023-02-14T06:05:59;31.02;;;14.52;;
47715;SDS011;33476;50.984;3.538;2023-02-14T06:08:24;32.65;;;14.65;;
47715;SDS011;33476;50.984;3.538;2023-02-14T06:10:50;32.28;;;14.95;;
47715;SDS011;33476;50.984;3.538;2023-02-14T06:13:15;30.50;;;15.02;;
47715;SDS011;33476;50.984;3.538;2023-02-14T06:15:41;37.42;;;15.82;;
47715;SDS011;33476;50.984;3.538;2023-02-14T06:18:06;29.30;;;14.30;;
47715;SDS011;33476;50.984;3.538;2023-02-14T06:20:31;30.50;;;14.90;;
47715;SDS011;33476;50.984;3.538;2023-02-14T06:22:57;34.70;;;15.55;;
47715;SDS011;33476;50.984;3.538;2023-02-14T06:25:23;30.80;;;14.45;;
47715;SDS011;33476;50.984;3.538;2023-02-14T06:27:49;32.40;;;15.25;;
47715;SDS011;33476;50.984;3.538;2023-02-14T06:30:15;33.95;;;15.77;;
47715;SDS011;33476;50.984;3.538;2023-02-14T06:32:42;34.17;;;16.85;;
47715;SDS011;33476;50.984;3.538;2023-02-14T06:35:07;37.88;;;16.20;;
47715;SDS011;33476;50.984;3.538;2023-02-14T06:37:33;35.60;;;14.85;;
47715;SDS011;33476;50.984;3.538;2023-02-14T06:39:58;36.17;;;15.55;;
47715;SDS011;33476;50.984;3.538;2023-02-14T06:42:24;33.67;;;15.32;;
47715;SDS011;33476;50.984;3.538;2023-02-14T06:44:49;36.35;;;16.17;;
47715;SDS011;33476;50.984;3.538;2023-02-14T06:47:15;35.13;;;15.85;;
47715;SDS011;33476;50.984;3.538;2023-02-14T06:49:41;32.13;;;14.77;;
47715;SDS011;33476;50.984;3.538;2023-02-14T06:52:06;31.05;;;15.43;;
47715;SDS011;33476;50.984;3.538;2023-02-14T06:54:32;31.15;;;14.38;;
47715;SDS011;33476;50.984;3.538;2023-02-14T06:56:57;31.38;;;14.93;;
47715;SDS011;33476;50.984;3.538;2023-02-14T06:59:22;31.30;;;15.80;;
47715;SDS011;33476;50.984;3.538;2023-02-14T07:01:48;30.60;;;14.18;;
47715;SDS011;33476;50.984;3.538;2023-02-14T07:04:13;30.10;;;14.15;;
47715;SDS011;33476;50.984;3.538;2023-02-14T07:06:39;35.08;;;15.73;;
47715;SDS011;33476;50.984;3.538;2023-02-14T07:09:04;28.70;;;14.07;;
47715;SDS011;33476;50.984;3.538;2023-02-14T07:11:30;30.58;;;13.85;;
47715;SDS011;33476;50.984;3.538;2023-02-14T07:13:55;28.80;;;13.18;;
47715;SDS011;33476;50.984;3.538;2023-02-14T07:16:21;31.83;;;13.63;;
47715;SDS011;33476;50.984;3.538;2023-02-14T07:18:46;29.25;;;13.55;;
47715;SDS011;33476;50.984;3.538;2023-02-14T07:21:11;29.88;;;13.43;;
47715;SDS011;33476;50.984;3.538;2023-02-14T07:23:37;27.35;;;12.55;;
47715;SDS011;33476;50.984;3.538;2023-02-14T07:26:06;28.98;;;14.27;;
47715;SDS011;33476;50.984;3.538;2023-02-14T07:28:31;24.75;;;11.75;;
47715;SDS011;33476;50.984;3.538;2023-02-14T07:31:00;25.10;;;12.20;;
47715;SDS011;33476;50.984;3.538;2023-02-14T07:33:26;27.58;;;12.20;;
47715;SDS011;33476;50.984;3.538;2023-02-14T07:35:51;25.60;;;12.07;;
47715;SDS011;33476;50.984;3.538;2023-02-14T07:38:16;25.80;;;11.80;;
47715;SDS011;33476;50.984;3.538;2023-02-14T07:40:42;28.33;;;11.85;;
47715;SDS011;33476;50.984;3.538;2023-02-14T07:43:07;25.50;;;12.05;;
47715;SDS011;33476;50.984;3.538;2023-02-14T07:45:32;30.63;;;12.57;;
47715;SDS011;33476;50.984;3.538;2023-02-14T07:47:58;29.15;;;13.55;;
47715;SDS011;33476;50.984;3.538;2023-02-14T07:50:26;28.52;;;12.32;;
47715;SDS011;33476;50.984;3.538;2023-02-14T07:52:52;26.70;;;11.77;;
47715;SDS011;33476;50.984;3.538;2023-02-14T07:55:18;27.10;;;12.93;;
47715;SDS011;33476;50.984;3.538;2023-02-14T07:57:45;23.67;;;12.05;;
47715;SDS011;33476;50.984;3.538;2023-02-14T08:00:12;27.17;;;12.35;;
47715;SDS011;33476;50.984;3.538;2023-02-14T08:02:39;27.98;;;13.15;;
47715;SDS011;33476;50.984;3.538;2023-02-14T08:05:04;26.58;;;12.82;;
47715;SDS011;33476;50.984;3.538;2023-02-14T08:07:30;34.90;;;13.57;;
47715;SDS011;33476;50.984;3.538;2023-02-14T08:09:55;27.83;;;12.60;;
47715;SDS011;33476;50.984;3.538;2023-02-14T08:12:20;29.35;;;13.18;;
47715;SDS011;33476;50.984;3.538;2023-02-14T08:15:04;28.80;;;12.73;;
47715;SDS011;33476;50.984;3.538;2023-02-14T08:17:48;30.25;;;14.05;;
47715;SDS011;33476;50.984;3.538;2023-02-14T08:20:13;35.03;;;16.52;;
47715;SDS011;33476;50.984;3.538;2023-02-14T08:22:39;36.15;;;16.20;;
47715;SDS011;33476;50.984;3.538;2023-02-14T08:25:04;37.38;;;15.65;;
47715;SDS011;33476;50.984;3.538;2023-02-14T08:27:30;32.33;;;15.48;;
47715;SDS011;33476;50.984;3.538;2023-02-14T08:29:55;31.77;;;15.10;;
47715;SDS011;33476;50.984;3.538;2023-02-14T08:32:20;30.70;;;15.82;;
47715;SDS011;33476;50.984;3.538;2023-02-14T08:34:46;41.67;;;16.45;;
47715;SDS011;33476;50.984;3.538;2023-02-14T08:37:11;35.42;;;17.27;;
47715;SDS011;33476;50.984;3.538;2023-02-14T08:39:37;42.92;;;17.05;;
47715;SDS011;33476;50.984;3.538;2023-02-14T08:42:03;39.33;;;18.73;;
47715;SDS011;33476;50.984;3.538;2023-02-14T08:44:29;39.65;;;18.55;;
47715;SDS011;33476;50.984;3.538;2023-02-14T08:46:54;39.40;;;18.20;;
47715;SDS011;33476;50.984;3.538;2023-02-14T08:49:19;39.25;;;18.88;;
47715;SDS011;33476;50.984;3.538;2023-02-14T08:51:45;39.80;;;18.95;;
47715;SDS011;33476;50.984;3.538;2023-02-14T08:54:10;40.03;;;18.48;;
47715;SDS011;33476;50.984;3.538;2023-02-14T08:56:35;39.42;;;17.50;;
47715;SDS011;33476;50.984;3.538;2023-02-14T08:59:01;37.85;;;18.27;;
47715;SDS011;33476;50.984;3.538;2023-02-14T09:01:27;38.83;;;17.27;;
47715;SDS011;33476;50.984;3.538;2023-02-14T09:03:53;33.85;;;15.82;;
47715;SDS011;33476;50.984;3.538;2023-02-14T09:06:19;34.35;;;15.32;;
47715;SDS011;33476;50.984;3.538;2023-02-14T09:08:44;34.88;;;15.40;;
47715;SDS011;33476;50.984;3.538;2023-02-14T09:11:18;34.80;;;15.65;;
47715;SDS011;33476;50.984;3.538;2023-02-14T09:13:46;32.35;;;15.38;;
47715;SDS011;33476;50.984;3.538;2023-02-14T09:16:12;34.30;;;14.18;;
47715;SDS011;33476;50.984;3.538;2023-02-14T09:18:38;29.70;;;14.80;;
47715;SDS011;33476;50.984;3.538;2023-02-14T09:21:14;32.40;;;14.75;;
47715;SDS011;33476;50.984;3.538;2023-02-14T09:23:42;34.17;;;14.82;;
47715;SDS011;33476;50.984;3.538;2023-02-14T09:26:09;31.98;;;13.73;;
47715;SDS011;33476;50.984;3.538;2023-02-14T09:28:36;31.85;;;13.93;;
47715;SDS011;33476;50.984;3.538;2023-02-14T09:31:15;33.80;;;15.05;;
47715;SDS011;33476;50.984;3.538;2023-02-14T09:33:45;28.75;;;13.70;;
47715;SDS011;33476;50.984;3.538;2023-02-14T09:36:12;28.95;;;14.25;;
47715;SDS011;33476;50.984;3.538;2023-02-14T09:38:44;27.90;;;12.63;;
47715;SDS011;33476;50.984;3.538;2023-02-14T09:41:20;31.20;;;15.50;;
47715;SDS011;33476;50.984;3.538;2023-02-14T09:43:58;30.88;;;14.68;;
47715;SDS011;33476;50.984;3.538;2023-02-14T09:46:26;29.50;;;14.65;;
47715;SDS011;33476;50.984;3.538;2023-02-14T09:48:53;29.15;;;15.48;;
47715;SDS011;33476;50.984;3.538;2023-02-14T09:51:24;31.17;;;15.85;;
47715;SDS011;33476;50.984;3.538;2023-02-14T09:53:56;28.65;;;16.00;;
47715;SDS011;33476;50.984;3.538;2023-02-14T09:56:30;33.83;;;16.58;;
47715;SDS011;33476;50.984;3.538;2023-02-14T10:09:51;33.05;;;17.05;;
47715;SDS011;33476;50.984;3.538;2023-02-14T10:12:36;31.25;;;16.25;;
47715;SDS011;33476;50.984;3.538;2023-02-14T10:15:16;37.60;;;16.50;;
47715;SDS011;33476;50.984;3.538;2023-02-14T10:20:52;32.30;;;16.42;;
47715;SDS011;33476;50.984;3.538;2023-02-14T10:28:33;30.90;;;15.95;;
47715;SDS011;33476;50.984;3.538;2023-02-14T10:33:40;36.33;;;16.83;;
47715;SDS011;33476;50.984;3.538;2023-02-14T10:36:14;36.33;;;16.65;;
47715;SDS011;33476;50.984;3.538;2023-02-14T10:41:39;31.90;;;16.52;;
47715;SDS011;33476;50.984;3.538;2023-02-14T10:49:44;37.30;;;17.17;;
47715;SDS011;33476;50.984;3.538;2023-02-14T10:55:37;33.70;;;17.30;;
47715;SDS011;33476;50.984;3.538;2023-02-14T10:58:09;39.90;;;17.25;;
47715;SDS011;33476;50.984;3.538;2023-02-14T11:00:39;36.85;;;16.58;;
47715;SDS011;33476;50.984;3.538;2023-02-14T11:03:14;33.83;;;18.05;;
47715;SDS011;33476;50.984;3.538;2023-02-14T11:05:41;37.85;;;17.88;;
47715;SDS011;33476;50.984;3.538;2023-02-14T11:08:26;39.10;;;18.95;;
47715;SDS011;33476;50.984;3.538;2023-02-14T11:11:04;37.47;;;18.02;;
47715;SDS011;33476;50.984;3.538;2023-02-14T11:16:08;36.35;;;17.27;;
47715;SDS011;33476;50.984;3.538;2023-02-14T11:18:36;41.40;;;19.55;;
47715;SDS011;33476;50.984;3.538;2023-02-14T11:21:05;43.17;;;19.73;;
47715;SDS011;33476;50.984;3.538;2023-02-14T11:23:35;39.83;;;18.67;;
47715;SDS011;33476;50.984;3.538;2023-02-14T11:26:07;39.38;;;18.08;;
47715;SDS011;33476;50.984;3.538;2023-02-14T11:28:43;44.65;;;19.13;;
47715;SDS011;33476;50.984;3.538;2023-02-14T11:31:12;44.35;;;18.50;;
47715;SDS011;33476;50.984;3.538;2023-02-14T11:33:38;35.45;;;18.48;;
47715;SDS011;33476;50.984;3.538;2023-02-14T11:36:10;38.17;;;19.35;;
47715;SDS011;33476;50.984;3.538;2023-02-14T11:38:39;39.55;;;18.90;;
47715;SDS011;33476;50.984;3.538;2023-02-14T11:41:06;37.05;;;19.17;;
47715;SDS011;33476;50.984;3.538;2023-02-14T11:43:44;37.17;;;18.73;;
47715;SDS011;33476;50.984;3.538;2023-02-14T11:48:58;38.15;;;19.00;;
47715;SDS011;33476;50.984;3.538;2023-02-14T11:51:32;36.05;;;17.60;;
47715;SDS011;33476;50.984;3.538;2023-02-14T11:54:00;39.08;;;18.73;;
47715;SDS011;33476;50.984;3.538;2023-02-14T11:56:45;38.08;;;17.30;;
47715;SDS011;33476;50.984;3.538;2023-02-14T11:59:13;38.90;;;18.23;;
47715;SDS011;33476;50.984;3.538;2023-02-14T12:01:50;37.38;;;18.98;;
47715;SDS011;33476;50.984;3.538;2023-02-14T12:04:17;35.75;;;18.85;;
47715;SDS011;33476;50.984;3.538;2023-02-14T12:06:45;38.63;;;18.30;;
47715;SDS011;33476;50.984;3.538;2023-02-14T12:11:59;36.88;;;19.05;;
47715;SDS011;33476;50.984;3.538;2023-02-14T12:14:30;37.63;;;18.92;;
47715;SDS011;33476;50.984;3.538;2023-02-14T12:17:06;35.70;;;17.70;;
47715;SDS011;33476;50.984;3.538;2023-02-14T12:22:38;37.60;;;17.85;;
47715;SDS011;33476;50.984;3.538;2023-02-14T12:25:18;37.42;;;18.05;;
47715;SDS011;33476;50.984;3.538;2023-02-14T12:27:50;39.88;;;19.23;;
47715;SDS011;33476;50.984;3.538;2023-02-14T12:30:21;36.60;;;18.23;;
47715;SDS011;33476;50.984;3.538;2023-02-14T12:43:52;39.03;;;18.80;;
47715;SDS011;33476;50.984;3.538;2023-02-14T12:46:22;43.50;;;19.52;;
47715;SDS011;33476;50.984;3.538;2023-02-14T12:48:55;41.35;;;19.33;;
47715;SDS011;33476;50.984;3.538;2023-02-14T13:11:22;37.15;;;18.02;;
47715;SDS011;33476;50.984;3.538;2023-02-14T13:16:56;35.78;;;18.30;;
47715;SDS011;33476;50.984;3.538;2023-02-14T13:22:07;36.00;;;18.38;;
47715;SDS011;33476;50.984;3.538;2023-02-14T13:24:41;39.83;;;19.75;;
47715;SDS011;33476;50.984;3.538;2023-02-14T13:27:17;39.40;;;18.88;;
47715;SDS011;33476;50.984;3.538;2023-02-14T13:29:51;40.65;;;19.40;;
47715;SDS011;33476;50.984;3.538;2023-02-14T13:32:23;38.33;;;19.63;;
47715;SDS011;33476;50.984;3.538;2023-02-14T13:34:52;42.13;;;19.83;;
47715;SDS011;33476;50.984;3.538;2023-02-14T13:37:20;42.67;;;20.52;;
47715;SDS011;33476;50.984;3.538;2023-02-14T13:39:49;39.13;;;20.08;;
47715;SDS011;33476;50.984;3.538;2023-02-14T13:45:03;40.90;;;19.63;;
47715;SDS011;33476;50.984;3.538;2023-02-14T13:47:30;42.60;;;20.08;;
47715;SDS011;33476;50.984;3.538;2023-02-14T13:49:57;36.58;;;19.00;;
47715;SDS011;33476;50.984;3.538;2023-02-14T13:52:44;40.05;;;19.30;;
47715;SDS011;33476;50.984;3.538;2023-02-14T13:55:18;43.38;;;20.80;;
47715;SDS011;33476;50.984;3.538;2023-02-14T13:58:03;42.17;;;20.17;;
47715;SDS011;33476;50.984;3.538;2023-02-14T14:00:44;45.83;;;21.50;;
47715;SDS011;33476;50.984;3.538;2023-02-14T14:05:59;42.47;;;19.40;;
47715;SDS011;33476;50.984;3.538;2023-02-14T14:10:54;45.20;;;20.38;;
47715;SDS011;33476;50.984;3.538;2023-02-14T14:21:37;41.92;;;20.45;;
47715;SDS011;33476;50.984;3.538;2023-02-14T14:24:22;43.28;;;21.02;;
47715;SDS011;33476;50.984;3.538;2023-02-14T14:29:25;46.92;;;22.88;;
47715;SDS011;33476;50.984;3.538;2023-02-14T14:31:56;48.55;;;23.27;;
47715;SDS011;33476;50.984;3.538;2023-02-14T14:34:23;42.00;;;20.90;;
47715;SDS011;33476;50.984;3.538;2023-02-14T14:37:00;44.08;;;20.67;;
47715;SDS011;33476;50.984;3.538;2023-02-14T14:39:31;56.10;;;21.43;;
47715;SDS011;33476;50.984;3.538;2023-02-14T14:44:58;42.40;;;19.95;;
47715;SDS011;33476;50.984;3.538;2023-02-14T14:47:27;46.13;;;21.00;;
47715;SDS011;33476;50.984;3.538;2023-02-14T14:49:59;43.53;;;19.98;;
47715;SDS011;33476;50.984;3.538;2023-02-14T14:55:02;49.58;;;21.77;;
47715;SDS011;33476;50.984;3.538;2023-02-14T14:57:30;43.80;;;20.38;;
47715;SDS011;33476;50.984;3.538;2023-02-14T15:00:03;42.22;;;19.95;;
47715;SDS011;33476;50.984;3.538;2023-02-14T15:02:41;45.03;;;21.02;;
47715;SDS011;33476;50.984;3.538;2023-02-14T15:05:12;46.13;;;20.40;;
47715;SDS011;33476;50.984;3.538;2023-02-14T15:07:48;42.78;;;19.52;;
47715;SDS011;33476;50.984;3.538;2023-02-14T15:10:20;40.10;;;19.58;;
47715;SDS011;33476;50.984;3.538;2023-02-14T15:12:46;44.28;;;20.30;;
47715;SDS011;33476;50.984;3.538;2023-02-14T15:15:30;40.25;;;19.25;;
47715;SDS011;33476;50.984;3.538;2023-02-14T15:17:56;42.67;;;20.17;;
47715;SDS011;33476;50.984;3.538;2023-02-14T15:20:21;43.85;;;20.08;;
47715;SDS011;33476;50.984;3.538;2023-02-14T15:22:48;44.33;;;18.95;;
47715;SDS011;33476;50.984;3.538;2023-02-14T15:25:17;39.60;;;19.75;;
47715;SDS011;33476;50.984;3.538;2023-02-14T15:27:45;37.05;;;19.67;;
47715;SDS011;33476;50.984;3.538;2023-02-14T15:32:43;40.58;;;20.27;;
47715;SDS011;33476;50.984;3.538;2023-02-14T15:35:09;42.03;;;19.67;;
47715;SDS011;33476;50.984;3.538;2023-02-14T15:37:38;51.15;;;19.95;;
47715;SDS011;33476;50.984;3.538;2023-02-14T15:40:04;40.35;;;19.88;;
47715;SDS011;33476;50.984;3.538;2023-02-14T15:42:32;44.25;;;20.80;;
47715;SDS011;33476;50.984;3.538;2023-02-14T15:47:48;39.55;;;18.85;;
47715;SDS011;33476;50.984;3.538;2023-02-14T15:50:34;44.40;;;20.60;;
47715;SDS011;33476;50.984;3.538;2023-02-14T15:56:05;38.53;;;19.33;;
47715;SDS011;33476;50.984;3.538;2023-02-14T15:58:33;38.00;;;19.75;;
47715;SDS011;33476;50.984;3.538;2023-02-14T16:01:01;46.38;;;20.10;;
47715;SDS011;33476;50.984;3.538;2023-02-14T16:03:29;43.67;;;20.50;;
47715;SDS011;33476;50.984;3.538;2023-02-14T16:05:57;40.25;;;18.42;;
47715;SDS011;33476;50.984;3.538;2023-02-14T16:08:41;40.72;;;20.42;;
47715;SDS011;33476;50.984;3.538;2023-02-14T16:13:50;44.58;;;19.75;;
47715;SDS011;33476;50.984;3.538;2023-02-14T16:16:15;40.35;;;19.08;;
47715;SDS011;33476;50.984;3.538;2023-02-14T16:18:51;42.65;;;19.58;;
47715;SDS011;33476;50.984;3.538;2023-02-14T16:26:31;44.65;;;20.95;;
47715;SDS011;33476;50.984;3.538;2023-02-14T16:29:05;44.13;;;20.05;;
47715;SDS011;33476;50.984;3.538;2023-02-14T16:31:32;48.75;;;20.67;;
47715;SDS011;33476;50.984;3.538;2023-02-14T16:33:58;50.40;;;19.85;;
47715;SDS011;33476;50.984;3.538;2023-02-14T16:36:28;41.65;;;20.17;;
47715;SDS011;33476;50.984;3.538;2023-02-14T16:38:55;44.67;;;20.40;;
47715;SDS011;33476;50.984;3.538;2023-02-14T16:41:24;41.05;;;19.13;;
47715;SDS011;33476;50.984;3.538;2023-02-14T16:46:19;43.47;;;20.30;;
47715;SDS011;33476;50.984;3.538;2023-02-14T16:48:46;45.67;;;21.63;;
47715;SDS011;33476;50.984;3.538;2023-02-14T16:51:16;46.38;;;20.42;;
47715;SDS011;33476;50.984;3.538;2023-02-14T16:53:43;47.75;;;20.77;;
47715;SDS011;33476;50.984;3.538;2023-02-14T16:56:10;46.70;;;20.83;;
47715;SDS011;33476;50.984;3.538;2023-02-14T16:58:40;42.13;;;20.35;;
47715;SDS011;33476;50.984;3.538;2023-02-14T17:01:06;46.58;;;21.00;;
47715;SDS011;33476;50.984;3.538;2023-02-14T17:03:32;46.25;;;21.42;;
47715;SDS011;33476;50.984;3.538;2023-02-14T17:05:58;55.42;;;22.35;;
47715;SDS011;33476;50.984;3.538;2023-02-14T17:08:24;58.90;;;22.75;;
47715;SDS011;33476;50.984;3.538;2023-02-14T17:10:51;51.10;;;23.02;;
47715;SDS011;33476;50.984;3.538;2023-02-14T17:13:18;51.33;;;22.90;;
47715;SDS011;33476;50.984;3.538;2023-02-14T17:15:46;54.75;;;23.75;;
47715;SDS011;33476;50.984;3.538;2023-02-14T17:18:12;61.20;;;24.77;;
47715;SDS011;33476;50.984;3.538;2023-02-14T17:20:41;50.78;;;23.27;;
47715;SDS011;33476;50.984;3.538;2023-02-14T17:23:07;53.08;;;23.13;;
47715;SDS011;33476;50.984;3.538;2023-02-14T17:25:33;50.55;;;23.85;;